Search for airport 
image banner adimage banner adimage banner ad
image banner ad

CN98 - Walter's Camp

Located in Palo Verde, United States

ICAO - CN98, IATA -

Data provided by Airmate  

General information

Coordinates: N33°14'44" W114°42'37"
Elevation is 309 feet MSL.
 
View others Airports in California

Operational data

Special qualification required
Current time UTC:
Current local time:
Weather at : KBLH - Blythe ( 42 km )
METAR: KBLH 210152Z AUTO 18004KT 10SM CLR 36/04 A2985 RMK AO2 SLP102 T03560039
TAF: KBLH 202320Z 2100/2124 VRB05KT P6SM FEW250 FM210200 34005KT P6SM FEW250 FM211700 05006KT P6SM SKC
View NOTAMs / SUP AIP / TFR affecting this airport [VIEW]
Communications frequencies: [VIEW]

Runways:

RWY identifierQFULength (ft)Width (ft)SurfaceLDA (ft)
06250050EARTH
24250050EARTH

Airport contact information

Address: Palo Verde United States

Satellite view of CN98